createdAt,value
2019-01-16T00:01:39.648Z,18.63
2019-01-16T00:04:20.286Z,18.93
2019-01-16T00:07:08.444Z,17.47
2019-01-16T00:09:54.545Z,19.83
2019-01-16T00:12:40.314Z,18.13
2019-01-16T00:15:28.619Z,19.97
2019-01-16T00:18:31.917Z,25.37
2019-01-16T00:21:15.463Z,24.20
2019-01-16T00:24:03.707Z,24.83
2019-01-16T00:26:46.141Z,26.97
2019-01-16T00:29:43.611Z,26.23
2019-01-16T00:32:31.893Z,24.30
2019-01-16T00:35:24.598Z,22.70
2019-01-16T00:38:15.623Z,22.93
2019-01-16T00:41:02.715Z,21.03
2019-01-16T00:43:59.793Z,22.70
2019-01-16T00:46:59.833Z,22.43
2019-01-16T00:49:50.264Z,19.63
2019-01-16T00:52:32.571Z,24.53
2019-01-16T00:55:27.981Z,19.90
2019-01-16T00:58:20.397Z,24.33
2019-01-16T01:01:11.373Z,20.47
2019-01-16T01:03:59.511Z,21.80
2019-01-16T01:06:42.943Z,20.17
2019-01-16T01:09:29.427Z,22.53
2019-01-16T01:12:17.838Z,19.47
2019-01-16T01:15:02.685Z,19.73
2019-01-16T01:17:51.105Z,18.83
2019-01-16T01:20:42.426Z,21.37
2019-01-16T01:23:29.255Z,17.30
2019-01-16T01:26:17.065Z,21.63
2019-01-16T01:29:05.250Z,19.80
2019-01-16T01:31:50.840Z,21.70
2019-01-16T01:34:26.833Z,19.57
2019-01-16T01:37:15.113Z,20.13
2019-01-16T01:40:15.177Z,23.97
2019-01-16T01:43:12.266Z,22.97
2019-01-16T01:46:03.460Z,21.20
2019-01-16T01:49:10.008Z,17.77
2019-01-16T01:52:07.694Z,18.83
2019-01-16T01:55:01.656Z,21.77
2019-01-16T12:33:39.805Z,4.63
2019-01-16T12:36:39.963Z,5.80
2019-01-16T12:39:24.177Z,4.00
2019-01-16T12:42:13.923Z,3.73
2019-01-16T12:44:55.477Z,4.30
2019-01-16T12:47:42.288Z,3.50
2019-01-16T12:50:23.662Z,3.53
2019-01-16T12:53:10.486Z,3.67
2019-01-16T12:55:57.473Z,4.20
2019-01-16T12:58:41.838Z,5.60
2019-01-16T13:01:28.613Z,4.80
2019-01-16T13:04:15.549Z,3.53
2019-01-16T13:06:58.188Z,4.30
2019-01-16T13:09:49.281Z,4.53
2019-01-16T13:12:30.779Z,3.17
2019-01-16T13:15:17.994Z,4.03
2019-01-16T13:18:18.315Z,4.37
2019-01-16T13:21:05.453Z,4.30
2019-01-16T13:23:54.221Z,4.60
2019-01-16T13:26:39.741Z,4.67
2019-01-16T13:29:25.256Z,3.77
2019-01-16T13:32:16.223Z,4.03
2019-01-16T13:35:03.072Z,3.57
2019-01-16T13:37:50.033Z,3.80
2019-01-16T13:40:41.303Z,4.53
2019-01-16T13:43:21.629Z,3.57
2019-01-16T13:46:18.642Z,5.47
2019-01-16T13:49:12.587Z,3.80
2019-01-16T13:52:11.985Z,3.57
2019-01-16T13:55:03.080Z,4.07
2019-01-16T13:57:54.108Z,4.73
2019-01-16T14:00:54.609Z,3.93
2019-01-16T14:03:51.833Z,3.60
2019-01-16T14:06:52.073Z,5.00
2019-01-16T14:09:40.351Z,3.70
2019-01-16T14:12:31.601Z,4.27
2019-01-16T14:18:11.696Z,5.37
2019-01-16T14:21:15.181Z,3.20
2019-01-16T14:24:01.426Z,4.37
2019-01-16T14:26:48.154Z,5.20
2019-01-16T14:29:35.202Z,5.57
2019-01-16T14:32:22.789Z,7.47
2019-01-16T14:35:11.012Z,4.60
2019-01-16T14:38:11.612Z,4.87
2019-01-16T14:40:59.805Z,5.60
2019-01-16T14:43:44.042Z,4.63
2019-01-16T14:46:30.066Z,7.40
2019-01-16T14:49:11.433Z,5.73
2019-01-16T14:52:18.075Z,8.47
2019-01-16T14:55:09.295Z,6.53
2019-01-16T14:57:49.881Z,7.27
2019-01-16T15:00:38.060Z,7.73
2019-01-16T15:03:25.180Z,10.53
2019-01-16T15:06:19.610Z,6.13
2019-01-16T15:09:10.942Z,6.10
2019-01-16T15:11:55.010Z,6.53
2019-01-16T15:14:48.722Z,6.47
2019-01-16T15:17:40.194Z,6.47
2019-01-16T15:20:24.128Z,6.37
2019-01-16T15:23:02.476Z,11.43
2019-01-16T15:25:50.642Z,7.07
2019-01-16T15:28:41.712Z,8.43
2019-01-16T15:31:48.340Z,8.13
2019-01-16T15:34:35.509Z,7.57
2019-01-16T15:37:22.546Z,6.37
2019-01-16T15:40:10.748Z,8.13
2019-01-16T15:42:53.464Z,7.30
2019-01-16T15:45:40.157Z,6.10
2019-01-16T15:48:31.631Z,8.10
2019-01-16T15:51:29.069Z,8.20
2019-01-16T15:54:23.734Z,7.40
2019-01-16T15:57:13.621Z,7.53
2019-01-16T16:00:00.377Z,7.57
2019-01-16T16:02:57.707Z,8.13
2019-01-16T16:05:48.095Z,7.70
2019-01-16T16:08:35.121Z,8.10
2019-01-16T16:11:22.539Z,8.70
2019-01-16T16:14:19.864Z,7.97
2019-01-16T16:17:07.081Z,8.50
2019-01-16T16:19:54.095Z,7.63
2019-01-16T16:22:41.198Z,10.07
2019-01-16T16:25:25.392Z,7.57
2019-01-16T16:28:16.581Z,10.70
2019-01-16T16:31:04.753Z,8.23
2019-01-16T16:33:50.304Z,10.20
2019-01-16T16:36:37.329Z,12.03
2019-01-16T16:39:43.701Z,16.37
2019-01-16T16:42:38.086Z,10.50
2019-01-16T16:45:42.597Z,7.23
2019-01-16T16:48:49.088Z,14.03
2019-01-16T16:51:43.422Z,9.30
2019-01-16T16:54:31.040Z,12.87
2019-01-16T16:57:19.755Z,11.60
2019-01-16T17:00:26.598Z,10.60
2019-01-16T17:03:10.771Z,14.40
2019-01-16T17:05:57.985Z,13.73
2019-01-16T17:08:46.187Z,10.90
2019-01-16T17:11:35.643Z,9.43
2019-01-16T17:14:25.757Z,10.93
2019-01-16T17:17:12.432Z,8.63
2019-01-16T17:19:59.570Z,10.20
2019-01-16T17:22:53.860Z,11.17
2019-01-16T17:25:39.948Z,9.80
2019-01-16T17:28:31.317Z,9.17
2019-01-16T17:31:14.673Z,11.50
2019-01-16T17:33:58.530Z,9.10
2019-01-16T17:36:36.594Z,7.33
2019-01-16T17:39:21.788Z,12.73
2019-01-16T17:42:02.346Z,9.83
2019-01-16T17:45:08.641Z,6.93
2019-01-16T17:47:59.882Z,14.23
2019-01-16T17:50:54.444Z,9.13
2019-01-16T17:53:49.417Z,7.73
2019-01-16T17:56:40.475Z,9.53
2019-01-16T17:59:38.801Z,6.63
2019-01-16T18:02:27.038Z,8.53
2019-01-16T18:05:15.259Z,7.33
2019-01-16T18:08:04.063Z,6.67
2019-01-16T18:10:48.384Z,8.37
2019-01-16T18:13:30.609Z,6.83
2019-01-16T18:16:17.510Z,14.73
2019-01-16T18:19:05.787Z,16.30
2019-01-16T18:21:51.536Z,9.80
2019-01-16T18:24:42.775Z,8.30
2019-01-16T18:27:30.948Z,9.40
2019-01-16T18:30:17.783Z,9.87
2019-01-16T18:33:17.819Z,5.53
2019-01-16T18:36:08.483Z,8.83
2019-01-16T18:38:51.208Z,6.60
2019-01-16T18:41:39.390Z,6.50
2019-01-16T18:44:26.351Z,6.60
2019-01-16T18:47:13.441Z,7.77
2019-01-16T18:50:00.489Z,8.33
2019-01-16T18:52:51.731Z,8.60
2019-01-16T18:55:30.264Z,7.30
2019-01-16T18:58:30.799Z,6.60
2019-01-16T19:01:19.068Z,5.43
2019-01-16T19:03:53.587Z,10.13
2019-01-16T19:06:44.680Z,6.37
2019-01-16T19:09:33.057Z,14.87
2019-01-16T19:12:15.356Z,6.17
2019-01-16T19:14:55.289Z,13.10
2019-01-16T19:17:43.456Z,6.93
2019-01-16T19:20:40.242Z,6.50
2019-01-16T19:23:30.162Z,9.87
2019-01-16T19:26:12.586Z,7.87
2019-01-16T19:29:16.209Z,6.83
2019-01-16T19:32:02.953Z,7.20
2019-01-16T19:34:37.579Z,6.23
2019-01-16T19:37:35.535Z,8.33
2019-01-16T19:40:24.766Z,6.43
2019-01-16T19:43:14.938Z,6.07
2019-01-16T19:45:56.724Z,6.20
2019-01-16T19:48:56.993Z,7.37
2019-01-16T19:51:38.949Z,7.97
2019-01-16T19:54:22.500Z,10.40
2019-01-16T19:57:25.648Z,5.50
2019-01-16T20:00:08.999Z,6.17
2019-01-16T20:02:57.219Z,7.30
2019-01-16T20:05:57.454Z,7.33
2019-01-16T20:08:44.565Z,6.47
2019-01-16T20:11:35.777Z,4.73
2019-01-16T20:14:33.218Z,6.83
2019-01-16T20:17:17.845Z,9.80
2019-01-16T20:20:12.210Z,6.60
2019-01-16T20:23:34.730Z,7.50
2019-01-16T20:26:32.120Z,7.47
2019-01-16T20:29:15.026Z,7.40
2019-01-16T20:31:56.522Z,6.30
2019-01-16T20:34:43.357Z,6.93
2019-01-16T20:37:30.238Z,8.30
2019-01-16T20:40:24.541Z,7.77
2019-01-16T20:43:21.133Z,8.23
2019-01-16T20:46:00.491Z,5.43
2019-01-16T20:48:46.909Z,9.83
2019-01-16T20:51:35.074Z,19.30
2019-01-16T20:54:14.380Z,20.90
2019-01-16T20:57:17.880Z,8.03
2019-01-16T21:00:04.605Z,5.63
2019-01-16T21:02:51.536Z,7.13
2019-01-16T21:05:31.955Z,5.20
2019-01-16T21:08:14.089Z,6.07
2019-01-16T21:10:54.388Z,5.10
2019-01-16T21:13:51.578Z,6.33
2019-01-16T21:16:32.219Z,5.87
2019-01-16T21:19:20.406Z,7.47
2019-01-16T21:22:02.781Z,8.10
2019-01-16T21:24:53.838Z,6.83
2019-01-16T21:27:40.790Z,6.90
2019-01-16T21:30:37.993Z,7.77
2019-01-16T21:33:32.397Z,6.27
2019-01-16T21:36:23.343Z,7.20
2019-01-16T21:39:10.763Z,5.67
2019-01-16T21:41:57.529Z,7.03
2019-01-16T21:44:54.575Z,11.27
2019-01-16T21:47:51.713Z,7.10
2019-01-16T21:50:43.802Z,8.17
2019-01-16T21:53:30.447Z,5.77
2019-01-16T21:56:17.239Z,6.67
2019-01-16T21:59:05.422Z,6.70
2019-01-16T22:02:02.890Z,9.93
2019-01-16T22:05:00.799Z,5.33
2019-01-16T22:07:58.074Z,7.10
2019-01-16T22:10:44.846Z,8.07
2019-01-16T22:13:33.110Z,11.20
2019-01-16T22:16:10.731Z,9.57
2019-01-16T22:18:57.713Z,9.00
2019-01-16T22:21:44.808Z,8.23
2019-01-16T22:24:31.237Z,8.63
2019-01-16T22:27:12.222Z,8.23
2019-01-16T22:30:00.645Z,47.67
2019-01-16T22:32:46.570Z,55.27
2019-01-16T22:35:34.817Z,12.83
2019-01-16T22:38:21.868Z,12.63
2019-01-16T22:41:16.072Z,9.30
2019-01-16T22:44:02.903Z,7.57
2019-01-16T22:46:46.237Z,10.27
2019-01-16T22:49:33.343Z,10.17
2019-01-16T22:52:13.202Z,10.07
2019-01-16T22:55:07.671Z,9.13
2019-01-16T22:58:11.442Z,11.17
2019-01-16T23:01:02.086Z,12.43
2019-01-16T23:03:53.365Z,7.93
2019-01-16T23:06:47.194Z,12.40
2019-01-16T23:09:25.110Z,11.10
2019-01-16T23:12:12.325Z,10.03
2019-01-16T23:14:48.886Z,11.87
2019-01-16T23:17:39.827Z,10.13
2019-01-16T23:20:19.536Z,10.13
2019-01-16T23:23:03.023Z,10.40
2019-01-16T23:25:45.566Z,10.80
2019-01-16T23:28:42.825Z,8.83
2019-01-16T23:31:36.845Z,9.73
2019-01-16T23:34:16.881Z,9.37
2019-01-16T23:37:03.469Z,11.33
2019-01-16T23:40:06.926Z,8.00
2019-01-16T23:43:02.386Z,8.53
2019-01-16T23:45:49.430Z,12.00
2019-01-16T23:48:45.841Z,7.27
2019-01-16T23:51:32.949Z,10.73
2019-01-16T23:54:23.891Z,8.80
2019-01-16T23:57:18.064Z,10.43
